Terminal Aerodrome Forecast
Issued by NWS

Home | Current Version | Previous Version | Graphics & Text | Print | Product List | Glossary On
Versions: 1 2 3 4 5 6 7 8 9 10 11 12 13 14 15 16 17 18 19 20 21 22 23 24 25
000
FTUS43 KGRB 261600 AAB
TAFMTW
TAF AMD
KMTW 261636Z 2617/2712 18010KT P6SM SCT050 OVC070
     FM262000 16011KT 2SM -SN BKN018 OVC025
     FM270400 12006KT 2SM -SHSN SCT009 OVC015
     FM270900 08004KT 4SM -SHSN SCT009 OVC015=

USA.gov is the U.S. government's official web portal to all federal, state and local government web resources and services.